createdAt,value
2019-02-11T00:01:40.736Z,87.85
2019-02-11T00:04:09.810Z,87.57
2019-02-11T00:06:39.610Z,87.98
2019-02-11T00:09:11.602Z,88.06
2019-02-11T00:11:40.707Z,88.20
2019-02-11T00:14:09.848Z,87.93
2019-02-11T00:16:40.362Z,88.13
2019-02-11T00:19:11.052Z,88.09
2019-02-11T00:21:40.254Z,87.58
2019-02-11T00:24:09.346Z,88.05
2019-02-11T00:26:38.480Z,88.24
2019-02-11T00:29:07.597Z,88.05
2019-02-11T00:31:36.677Z,88.58
2019-02-11T00:34:06.274Z,88.97
2019-02-11T00:36:35.454Z,88.98
2019-02-11T00:39:05.608Z,88.45
2019-02-11T00:41:34.757Z,88.33
2019-02-11T00:44:03.800Z,88.49
2019-02-11T00:46:36.625Z,88.80
2019-02-11T00:49:05.971Z,89.27
2019-02-11T00:51:35.305Z,87.06
2019-02-11T00:54:04.471Z,87.61
2019-02-11T00:56:34.871Z,88.18
2019-02-11T00:59:05.334Z,87.35
2019-02-11T01:01:35.276Z,87.58
2019-02-11T01:04:04.580Z,87.08
2019-02-11T01:06:33.906Z,87.01
2019-02-11T01:09:03.130Z,86.13
2019-02-11T01:11:32.247Z,86.36
2019-02-11T01:14:01.452Z,85.48
2019-02-11T01:16:30.877Z,86.60
2019-02-11T01:18:59.965Z,86.17
2019-02-11T01:21:29.009Z,84.47
2019-02-11T01:23:58.197Z,85.63
2019-02-11T01:26:27.305Z,84.98
2019-02-11T01:28:56.434Z,84.27
2019-02-11T01:31:25.647Z,84.61
2019-02-11T01:33:55.050Z,84.30
2019-02-11T01:36:24.394Z,84.45
2019-02-11T01:38:53.532Z,83.96
2019-02-11T01:41:22.635Z,83.56
2019-02-11T01:43:51.967Z,83.25
2019-02-11T01:46:21.216Z,83.32
2019-02-11T01:48:50.292Z,83.73
2019-02-11T01:51:19.456Z,83.53
2019-02-11T01:53:48.554Z,83.80
2019-02-11T01:56:17.663Z,83.79
2019-02-11T01:58:46.769Z,83.84
2019-02-11T02:01:15.886Z,83.54
2019-02-11T02:03:44.984Z,83.94
2019-02-11T02:06:14.088Z,84.88
2019-02-11T02:08:43.341Z,84.33
2019-02-11T02:11:12.469Z,83.96
2019-02-11T02:13:44.756Z,84.27
2019-02-11T02:16:12.474Z,84.54
2019-02-11T02:18:41.553Z,84.67
2019-02-11T02:21:10.696Z,85.04
2019-02-11T02:23:39.755Z,85.29
2019-02-11T02:26:08.869Z,85.82
2019-02-11T02:28:37.988Z,85.85
2019-02-11T02:31:07.154Z,86.16
2019-02-11T02:33:36.339Z,86.37
2019-02-11T02:36:05.493Z,86.59
2019-02-11T02:38:34.610Z,86.48
2019-02-11T02:41:03.781Z,86.69
2019-02-11T02:43:33.325Z,87.07
2019-02-11T02:46:02.508Z,86.93
2019-02-11T02:48:31.612Z,87.31
2019-02-11T02:51:00.712Z,87.01
2019-02-11T02:53:29.846Z,87.42
2019-02-11T02:55:58.935Z,87.64
2019-02-11T02:58:28.001Z,86.89
2019-02-11T03:00:57.150Z,87.65
2019-02-11T03:03:26.206Z,87.16
2019-02-11T03:05:55.384Z,86.42
2019-02-11T03:08:24.508Z,85.85
2019-02-11T03:10:53.657Z,86.16
2019-02-11T03:13:22.774Z,85.56
2019-02-11T03:15:51.895Z,85.50
2019-02-11T03:18:21.031Z,85.64
2019-02-11T03:20:50.224Z,86.26
2019-02-11T03:23:19.303Z,86.37
2019-02-11T03:25:48.377Z,85.88
2019-02-11T03:28:17.504Z,85.45
2019-02-11T03:30:46.628Z,84.96
2019-02-11T03:33:15.750Z,84.93
2019-02-11T03:35:44.870Z,85.88
2019-02-11T03:38:14.042Z,86.06
2019-02-11T03:40:43.168Z,85.57
2019-02-11T03:43:12.370Z,85.33
2019-02-11T03:45:41.485Z,85.73
2019-02-11T03:48:10.566Z,85.59
2019-02-11T03:50:39.735Z,85.75
2019-02-11T03:53:08.783Z,85.63
2019-02-11T03:55:37.919Z,85.67
2019-02-11T03:58:06.995Z,85.63
2019-02-11T04:00:36.095Z,85.96
2019-02-11T04:03:05.200Z,86.35
2019-02-11T04:05:34.277Z,85.62
2019-02-11T04:08:03.403Z,86.45
2019-02-11T04:10:32.574Z,85.86
2019-02-11T04:13:01.697Z,86.00
2019-02-11T04:15:30.822Z,86.28
2019-02-11T04:18:00.072Z,85.60
2019-02-11T04:20:29.168Z,85.68
2019-02-11T04:22:58.326Z,85.75
2019-02-11T04:25:28.182Z,85.29
2019-02-11T04:27:57.482Z,85.96
2019-02-11T04:30:26.602Z,85.64
2019-02-11T04:32:55.751Z,86.25
2019-02-11T04:35:24.803Z,85.89
2019-02-11T04:37:53.936Z,86.40
2019-02-11T04:40:23.216Z,86.54
2019-02-11T04:42:52.560Z,87.02
2019-02-11T04:45:21.899Z,86.78
2019-02-11T04:47:51.096Z,86.63
2019-02-11T04:50:20.264Z,87.07
2019-02-11T04:52:49.853Z,87.23
2019-02-11T04:55:19.706Z,86.95
2019-02-11T04:57:48.834Z,87.28
2019-02-11T05:00:18.529Z,87.15
2019-02-11T05:02:47.820Z,87.53
2019-02-11T05:05:16.984Z,87.75
2019-02-11T05:07:46.160Z,88.04
2019-02-11T05:10:15.357Z,87.62
2019-02-11T05:12:44.450Z,86.75
2019-02-11T05:15:13.567Z,86.66
2019-02-11T05:17:42.680Z,86.75
2019-02-11T05:20:11.768Z,86.58
2019-02-11T05:22:40.897Z,86.87
2019-02-11T05:25:09.961Z,86.98
2019-02-11T05:27:39.101Z,88.08
2019-02-11T05:30:08.629Z,87.66
2019-02-11T05:32:37.740Z,87.28
2019-02-11T05:35:06.995Z,87.82
2019-02-11T05:37:36.174Z,87.59
2019-02-11T05:40:05.789Z,88.41
2019-02-11T05:42:34.914Z,88.28
2019-02-11T05:45:04.031Z,88.74
2019-02-11T05:47:33.134Z,88.12
2019-02-11T05:50:02.291Z,87.82
2019-02-11T05:52:31.376Z,87.49
2019-02-11T05:55:00.452Z,88.22
2019-02-11T05:57:29.603Z,87.01
2019-02-11T05:59:58.708Z,88.08
2019-02-11T06:02:27.882Z,88.29
2019-02-11T06:04:57.012Z,88.15
2019-02-11T06:07:26.229Z,88.42
2019-02-11T06:09:55.424Z,87.94
2019-02-11T06:12:24.677Z,88.62
2019-02-11T06:14:55.436Z,88.30
2019-02-11T06:17:24.808Z,88.79
2019-02-11T06:19:53.959Z,89.04
2019-02-11T06:22:23.111Z,88.69
2019-02-11T06:24:52.260Z,87.44
2019-02-11T06:27:21.423Z,87.51
2019-02-11T06:29:50.619Z,87.27
2019-02-11T06:32:19.733Z,86.01
2019-02-11T06:34:48.990Z,85.43
2019-02-11T06:37:18.118Z,85.79
2019-02-11T06:39:48.578Z,86.24
2019-02-11T06:42:17.645Z,86.28
2019-02-11T06:44:46.824Z,85.92
2019-02-11T06:47:15.941Z,85.75
2019-02-11T06:49:45.272Z,86.85
2019-02-11T06:52:14.362Z,86.35
2019-02-11T06:54:43.527Z,86.44
2019-02-11T06:57:12.673Z,87.95
2019-02-11T06:59:41.957Z,87.34
2019-02-11T07:02:11.078Z,87.04
2019-02-11T07:04:40.173Z,88.07
2019-02-11T07:07:09.514Z,87.96
2019-02-11T07:09:38.672Z,88.02
2019-02-11T07:12:08.530Z,87.96
2019-02-11T07:14:37.984Z,88.17
2019-02-11T07:17:07.146Z,88.30
2019-02-11T07:19:36.356Z,87.86
2019-02-11T07:22:05.420Z,87.70
2019-02-11T07:24:35.143Z,87.42
2019-02-11T07:27:04.280Z,88.86
2019-02-11T07:29:33.372Z,88.61
2019-02-11T07:32:02.532Z,88.56
2019-02-11T07:34:31.687Z,89.05
2019-02-11T07:37:00.843Z,88.94
2019-02-11T07:39:30.132Z,88.93
2019-02-11T07:42:26.130Z,88.74
2019-02-11T07:44:57.632Z,87.93
2019-02-11T07:47:27.337Z,89.29
2019-02-11T07:49:56.453Z,88.90
2019-02-11T07:52:27.095Z,89.18
2019-02-11T07:54:57.011Z,86.63
2019-02-11T07:57:26.692Z,88.01
2019-02-11T07:59:57.287Z,87.60
2019-02-11T08:02:26.617Z,87.60
2019-02-11T08:04:56.250Z,87.05
2019-02-11T08:07:25.483Z,88.03
2019-02-11T08:09:54.760Z,86.85
2019-02-11T08:12:24.054Z,87.28
2019-02-11T08:14:53.180Z,85.82
2019-02-11T08:17:23.027Z,84.87
2019-02-11T08:19:52.307Z,85.29
2019-02-11T08:22:21.487Z,84.98
2019-02-11T08:24:50.658Z,84.95
2019-02-11T08:27:20.092Z,83.70
2019-02-11T08:29:51.295Z,81.21
2019-02-11T08:32:23.769Z,81.63
2019-02-11T08:34:53.002Z,81.31
2019-02-11T08:37:22.200Z,81.66
2019-02-11T08:39:51.301Z,81.59
2019-02-11T08:42:20.866Z,82.00
2019-02-11T08:44:50.116Z,81.91
2019-02-11T08:47:19.881Z,80.51
2019-02-11T08:49:49.107Z,81.34
2019-02-11T08:52:18.380Z,81.22
2019-02-11T08:54:47.506Z,82.06
2019-02-11T08:57:16.669Z,81.84
2019-02-11T08:59:45.900Z,82.71
2019-02-11T09:02:15.361Z,83.30
2019-02-11T09:04:44.533Z,83.28
2019-02-11T09:07:14.025Z,84.11
2019-02-11T09:09:43.131Z,82.52
2019-02-11T09:12:12.289Z,82.22
2019-02-11T09:14:51.918Z,80.82
2019-02-11T09:17:21.074Z,80.86
2019-02-11T09:19:50.162Z,78.97
2019-02-11T09:22:20.868Z,80.17
2019-02-11T09:24:50.055Z,79.92
2019-02-11T09:27:19.254Z,79.75
2019-02-11T09:29:48.298Z,81.63
2019-02-11T09:32:18.268Z,81.09
2019-02-11T09:34:47.519Z,81.05
2019-02-11T09:37:18.150Z,78.22
2019-02-11T09:39:47.295Z,76.37
2019-02-11T09:42:16.443Z,76.63
2019-02-11T09:44:45.589Z,74.66
2019-02-11T09:47:14.823Z,72.69
2019-02-11T09:49:43.880Z,71.48
2019-02-11T09:52:13.081Z,71.15
2019-02-11T09:54:42.232Z,72.90
2019-02-11T09:57:11.409Z,74.68
2019-02-11T09:59:44.830Z,74.63
2019-02-11T10:02:15.236Z,73.76
2019-02-11T10:04:44.314Z,74.91
2019-02-11T10:07:13.480Z,76.11
2019-02-11T10:09:42.670Z,75.50
2019-02-11T10:12:11.856Z,75.80
2019-02-11T10:14:41.187Z,76.27
2019-02-11T10:17:10.299Z,76.27
2019-02-11T10:19:39.670Z,76.29
2019-02-11T10:22:08.972Z,76.63
2019-02-11T10:24:46.234Z,76.14
2019-02-11T10:27:15.476Z,76.20
2019-02-11T10:29:44.546Z,76.66
2019-02-11T10:32:13.767Z,76.72
2019-02-11T10:34:44.378Z,76.88
2019-02-11T10:37:13.540Z,76.98
2019-02-11T10:39:42.659Z,77.64
2019-02-11T10:42:11.850Z,77.09
2019-02-11T10:44:41.008Z,75.34
2019-02-11T10:47:10.192Z,75.10
2019-02-11T10:49:39.408Z,74.73
2019-02-11T10:52:08.454Z,74.77
2019-02-11T10:54:37.625Z,75.26
2019-02-11T10:57:06.755Z,76.04
2019-02-11T10:59:35.952Z,76.32
2019-02-11T11:02:05.053Z,76.44
2019-02-11T11:04:34.235Z,76.75
2019-02-11T11:07:03.479Z,75.76
2019-02-11T11:09:32.630Z,76.11
2019-02-11T11:12:01.732Z,75.68
2019-02-11T11:14:30.899Z,76.18
2019-02-11T11:17:00.027Z,75.64
2019-02-11T11:19:29.185Z,76.61
2019-02-11T11:21:58.888Z,77.30
2019-02-11T11:24:28.048Z,76.63
2019-02-11T11:26:57.371Z,77.51
2019-02-11T11:29:27.238Z,77.94
2019-02-11T11:31:56.751Z,77.27
2019-02-11T11:34:25.958Z,76.96
2019-02-11T11:36:55.074Z,76.54
2019-02-11T11:39:26.928Z,76.76
2019-02-11T11:41:57.340Z,78.27
2019-02-11T11:44:27.311Z,78.76
2019-02-11T11:46:58.363Z,78.10
2019-02-11T11:49:30.814Z,79.40
2019-02-11T11:52:03.265Z,78.52
2019-02-11T11:54:34.732Z,77.72
2019-02-11T11:57:06.689Z,77.37
2019-02-11T11:59:38.342Z,77.87
2019-02-11T12:02:09.891Z,76.73
2019-02-11T12:04:39.405Z,73.89
2019-02-11T12:07:08.493Z,76.65
2019-02-11T12:09:37.924Z,75.66
2019-02-11T12:12:07.659Z,75.13
2019-02-11T12:14:37.271Z,76.41
2019-02-11T12:17:06.503Z,76.39
2019-02-11T12:19:35.613Z,75.71
2019-02-11T12:22:06.877Z,74.56
2019-02-11T12:24:38.502Z,74.05
2019-02-11T12:27:08.043Z,73.75
2019-02-11T12:29:44.437Z,73.71
2019-02-11T12:32:17.025Z,74.67
2019-02-11T12:34:46.285Z,73.38
2019-02-11T12:37:18.349Z,72.88
2019-02-11T12:39:49.075Z,71.67
2019-02-11T12:42:18.218Z,70.43
2019-02-11T12:44:47.384Z,69.21
2019-02-11T12:47:16.717Z,69.49
2019-02-11T12:49:45.957Z,70.34
2019-02-11T12:52:15.868Z,71.86
2019-02-11T12:54:45.626Z,73.10
2019-02-11T12:57:14.870Z,73.49
2019-02-11T12:59:44.267Z,73.25
2019-02-11T13:02:14.098Z,74.89
2019-02-11T13:04:43.626Z,74.75
2019-02-11T13:07:12.908Z,74.40
2019-02-11T13:09:42.016Z,74.31
2019-02-11T13:12:11.132Z,75.19
2019-02-11T13:14:40.655Z,75.43
2019-02-11T13:17:15.419Z,76.74
2019-02-11T13:19:40.659Z,75.77
2019-02-11T13:22:09.803Z,75.93
2019-02-11T13:24:38.968Z,76.41
2019-02-11T13:27:08.124Z,75.48
2019-02-11T13:29:37.225Z,75.35
2019-02-11T13:32:10.439Z,75.40
2019-02-11T13:34:39.450Z,74.75
2019-02-11T13:37:08.599Z,74.63
2019-02-11T13:39:38.986Z,74.62
2019-02-11T13:42:08.318Z,73.33
2019-02-11T13:44:37.453Z,72.86
2019-02-11T13:47:07.015Z,73.76
2019-02-11T13:49:36.210Z,73.87
2019-02-11T13:52:05.595Z,73.21
2019-02-11T13:54:35.341Z,73.06
2019-02-11T13:57:04.856Z,72.49
2019-02-11T13:59:34.377Z,73.18
2019-02-11T14:02:03.589Z,73.29
2019-02-11T14:04:33.014Z,71.61
2019-02-11T14:07:02.845Z,72.64
2019-02-11T14:09:32.762Z,73.28
2019-02-11T14:12:04.296Z,74.05
2019-02-11T14:14:33.612Z,73.81
2019-02-11T14:17:03.061Z,74.23
2019-02-11T14:19:32.643Z,74.28
2019-02-11T14:22:02.405Z,73.46
2019-02-11T14:24:32.224Z,72.40
2019-02-11T14:27:01.989Z,73.79
2019-02-11T14:29:31.778Z,74.71
2019-02-11T14:32:01.209Z,74.98
2019-02-11T14:34:31.159Z,74.70
2019-02-11T14:37:01.039Z,75.28
2019-02-11T14:39:30.944Z,74.92
2019-02-11T14:42:00.495Z,74.43
2019-02-11T14:44:29.745Z,74.75
2019-02-11T14:46:58.977Z,74.56
2019-02-11T14:49:28.048Z,75.04
2019-02-11T14:51:57.181Z,75.03
2019-02-11T14:54:26.380Z,75.03
2019-02-11T14:56:56.554Z,74.96
2019-02-11T14:59:25.771Z,74.23
2019-02-11T15:01:54.940Z,75.13
2019-02-11T15:04:24.215Z,74.21
2019-02-11T15:07:00.532Z,76.25
2019-02-11T15:09:29.762Z,76.00
2019-02-11T15:12:00.313Z,76.37
2019-02-11T15:14:29.480Z,77.03
2019-02-11T15:16:58.715Z,76.87
2019-02-11T15:19:34.447Z,78.43
2019-02-11T15:22:04.623Z,78.35
2019-02-11T15:24:33.778Z,78.82
2019-02-11T15:27:02.904Z,78.58
2019-02-11T15:29:33.324Z,78.85
2019-02-11T15:32:02.449Z,77.65
2019-02-11T15:34:31.786Z,78.46
2019-02-11T15:37:00.841Z,78.03
2019-02-11T15:39:29.982Z,77.61
2019-02-11T15:41:59.059Z,76.37
2019-02-11T15:44:28.242Z,75.37
2019-02-11T15:46:57.383Z,76.26
2019-02-11T15:49:26.598Z,76.12
2019-02-11T15:51:55.834Z,75.85
2019-02-11T15:54:25.015Z,76.61
2019-02-11T15:56:54.133Z,77.39
2019-02-11T15:59:23.306Z,77.38
2019-02-11T16:01:52.460Z,78.06
2019-02-11T16:04:21.554Z,78.10
2019-02-11T16:06:50.688Z,78.17
2019-02-11T16:09:19.937Z,78.57
2019-02-11T16:11:49.018Z,78.11
2019-02-11T16:14:18.175Z,78.23
2019-02-11T16:16:47.312Z,78.48
2019-02-11T16:19:16.464Z,78.43
2019-02-11T16:21:45.547Z,78.07
2019-02-11T16:24:14.693Z,77.91
2019-02-11T16:26:43.838Z,77.74
2019-02-11T16:29:13.051Z,79.35
2019-02-11T16:31:42.227Z,78.27
2019-02-11T16:34:11.344Z,77.63
2019-02-11T16:36:43.791Z,77.71
2019-02-11T16:39:12.911Z,78.22
2019-02-11T16:41:42.036Z,77.86
2019-02-11T16:44:11.872Z,78.53
2019-02-11T16:46:41.081Z,78.53
2019-02-11T16:49:10.259Z,78.13
2019-02-11T16:51:39.422Z,77.67
2019-02-11T16:54:08.492Z,77.32
2019-02-11T16:56:37.644Z,77.80
2019-02-11T16:59:06.698Z,77.50
2019-02-11T17:01:35.930Z,78.54
2019-02-11T17:04:05.113Z,78.44
2019-02-11T17:06:34.309Z,78.53
2019-02-11T17:09:04.704Z,78.75
2019-02-11T17:11:33.875Z,79.74
2019-02-11T17:14:03.015Z,81.11
2019-02-11T17:16:32.306Z,80.50
2019-02-11T17:19:08.871Z,79.42
2019-02-11T17:21:32.233Z,78.99
2019-02-11T17:24:01.338Z,78.08
2019-02-11T17:26:33.115Z,77.56
2019-02-11T17:29:03.692Z,77.14
2019-02-11T17:31:32.877Z,77.17
2019-02-11T17:34:02.123Z,78.00
2019-02-11T17:36:31.279Z,77.88
2019-02-11T17:39:00.458Z,78.38
2019-02-11T17:41:29.666Z,77.97
2019-02-11T17:43:58.751Z,77.84
2019-02-11T17:46:28.282Z,78.50
2019-02-11T17:49:02.222Z,79.52
2019-02-11T17:51:31.423Z,79.42
2019-02-11T17:54:00.595Z,79.31
2019-02-11T17:56:29.791Z,79.88
2019-02-11T17:59:00.228Z,80.12
2019-02-11T18:01:29.398Z,79.98
2019-02-11T18:03:58.535Z,80.67
2019-02-11T18:06:27.747Z,81.27
2019-02-11T18:08:56.879Z,80.94
2019-02-11T18:11:26.097Z,81.72
2019-02-11T18:13:55.248Z,82.80
2019-02-11T18:16:24.607Z,82.24
2019-02-11T18:18:53.786Z,83.02
2019-02-11T18:21:23.027Z,83.69
2019-02-11T18:23:52.176Z,84.12
2019-02-11T18:26:23.794Z,83.88
2019-02-11T18:28:55.777Z,84.10
2019-02-11T18:31:25.058Z,84.17
2019-02-11T18:33:54.129Z,84.12
2019-02-11T18:36:23.304Z,83.78
2019-02-11T18:38:52.423Z,83.83
2019-02-11T18:41:21.568Z,83.26
2019-02-11T18:43:50.707Z,83.08
2019-02-11T18:46:19.843Z,83.67
2019-02-11T18:48:49.039Z,83.63
2019-02-11T18:51:18.148Z,84.58
2019-02-11T18:53:47.355Z,83.97
2019-02-11T18:56:16.421Z,83.17
2019-02-11T18:58:45.586Z,84.35
2019-02-11T19:01:14.769Z,85.54
2019-02-11T19:03:44.099Z,85.59
2019-02-11T19:06:13.245Z,84.80
2019-02-11T19:08:42.331Z,84.65
2019-02-11T19:11:11.364Z,84.04
2019-02-11T19:13:40.527Z,83.82
2019-02-11T19:16:10.673Z,83.71
2019-02-11T19:18:39.769Z,84.53
2019-02-11T19:21:08.966Z,83.05
2019-02-11T19:23:38.125Z,83.98
2019-02-11T19:26:09.176Z,82.73
2019-02-11T19:28:38.322Z,84.32
2019-02-11T19:31:07.435Z,83.69
2019-02-11T19:33:36.649Z,83.08
2019-02-11T19:36:05.715Z,82.56
2019-02-11T19:38:34.857Z,83.09
2019-02-11T19:41:05.012Z,83.10
2019-02-11T19:43:34.088Z,83.07
2019-02-11T19:46:03.243Z,83.12
2019-02-11T19:48:33.415Z,83.98
2019-02-11T19:51:02.522Z,84.69
2019-02-11T19:53:31.583Z,83.72
2019-02-11T19:56:00.618Z,84.37
2019-02-11T19:58:30.842Z,84.15
2019-02-11T20:00:59.900Z,84.42
2019-02-11T20:03:28.975Z,84.31
2019-02-11T20:05:58.007Z,84.21
2019-02-11T20:08:28.383Z,83.99
2019-02-11T20:10:57.463Z,83.69
2019-02-11T20:13:26.521Z,83.89
2019-02-11T20:15:55.674Z,83.87
2019-02-11T20:18:24.776Z,83.69
2019-02-11T20:20:55.887Z,84.18
2019-02-11T20:23:24.982Z,83.90
2019-02-11T20:25:54.092Z,84.66
2019-02-11T20:28:23.213Z,83.88
2019-02-11T20:30:52.368Z,82.96
2019-02-11T20:33:21.477Z,83.58
2019-02-11T20:35:52.893Z,84.68
2019-02-11T20:38:23.950Z,85.68
2019-02-11T20:40:55.074Z,85.83
2019-02-11T20:43:24.159Z,86.35
2019-02-11T20:45:53.307Z,86.24
2019-02-11T20:48:26.658Z,85.70
2019-02-11T20:50:55.721Z,85.45
2019-02-11T20:53:24.814Z,86.90
2019-02-11T20:55:54.115Z,86.50
2019-02-11T20:58:24.598Z,86.02
2019-02-11T21:00:53.727Z,84.91
2019-02-11T21:03:22.786Z,85.76
2019-02-11T21:05:51.983Z,86.16
2019-02-11T21:08:21.095Z,86.48
2019-02-11T21:10:50.386Z,86.71
2019-02-11T21:13:21.761Z,88.05
2019-02-11T21:15:50.881Z,88.20
2019-02-11T21:18:19.994Z,88.16
2019-02-11T21:20:49.175Z,88.98
2019-02-11T21:23:18.273Z,89.94
2019-02-11T21:25:49.512Z,90.56
2019-02-11T21:28:18.603Z,91.08
2019-02-11T21:30:49.927Z,90.99
2019-02-11T21:33:19.109Z,91.28
2019-02-11T21:35:48.307Z,91.01
2019-02-11T21:38:17.874Z,89.82
2019-02-11T21:40:46.979Z,89.81
2019-02-11T21:43:16.080Z,89.02
2019-02-11T21:45:45.181Z,90.11
2019-02-11T21:48:14.418Z,89.35
2019-02-11T21:50:43.516Z,89.15
2019-02-11T21:53:12.644Z,88.64
2019-02-11T21:55:43.219Z,89.25
2019-02-11T21:58:12.377Z,89.69
2019-02-11T22:00:41.504Z,89.07
2019-02-11T22:03:10.541Z,89.50
2019-02-11T22:05:39.696Z,89.80
2019-02-11T22:08:10.311Z,89.09
2019-02-11T22:10:39.480Z,88.80
2019-02-11T22:13:08.596Z,88.46
2019-02-11T22:15:37.719Z,89.28
2019-02-11T22:18:06.844Z,89.51
2019-02-11T22:20:36.012Z,89.11
2019-02-11T22:23:05.046Z,89.60
2019-02-11T22:25:34.266Z,89.11
2019-02-11T22:28:03.323Z,89.05
2019-02-11T22:30:32.392Z,89.29
2019-02-11T22:33:01.943Z,90.04
2019-02-11T22:35:31.285Z,89.67
2019-02-11T22:38:02.026Z,90.89
2019-02-11T22:40:33.723Z,91.49
2019-02-11T22:43:03.850Z,91.09
2019-02-11T22:45:34.003Z,90.45
2019-02-11T22:48:06.956Z,90.72
2019-02-11T22:50:43.042Z,90.95
2019-02-11T22:53:08.872Z,90.49
2019-02-11T22:55:38.038Z,90.71
2019-02-11T22:58:08.599Z,90.77
2019-02-11T23:00:47.861Z,90.46
2019-02-11T23:03:19.027Z,90.25
2019-02-11T23:05:48.155Z,91.21
2019-02-11T23:08:19.332Z,91.22
2019-02-11T23:10:51.636Z,91.67
2019-02-11T23:13:23.576Z,91.73
2019-02-11T23:15:54.468Z,90.35
2019-02-11T23:18:25.008Z,91.64
2019-02-11T23:20:54.092Z,91.20
2019-02-11T23:23:23.363Z,90.87
2019-02-11T23:25:54.547Z,90.26
2019-02-11T23:28:26.041Z,91.22
2019-02-11T23:30:55.219Z,90.98
2019-02-11T23:33:25.347Z,91.07
2019-02-11T23:35:54.475Z,91.27
2019-02-11T23:38:23.596Z,90.68
2019-02-11T23:40:52.766Z,91.59
2019-02-11T23:43:21.960Z,91.77
2019-02-11T23:45:52.589Z,91.89
2019-02-11T23:48:23.839Z,92.37
2019-02-11T23:51:00.268Z,92.55
2019-02-11T23:53:23.911Z,91.32
2019-02-11T23:55:53.002Z,91.58
2019-02-11T23:58:23.396Z,91.11
